sensor_id;sensor_type;location;lat;lon;timestamp;temperature;humidity
46029;DHT22;31763;48.180;7.904;2023-12-20T00:02:02;4.50;99.90
46029;DHT22;31763;48.180;7.904;2023-12-20T00:04:29;4.50;99.90
46029;DHT22;31763;48.180;7.904;2023-12-20T00:06:56;4.60;99.90
46029;DHT22;31763;48.180;7.904;2023-12-20T00:09:23;4.60;99.90
46029;DHT22;31763;48.180;7.904;2023-12-20T00:11:50;4.70;99.90
46029;DHT22;31763;48.180;7.904;2023-12-20T00:14:17;4.60;99.90
46029;DHT22;31763;48.180;7.904;2023-12-20T00:16:44;4.60;99.90
46029;DHT22;31763;48.180;7.904;2023-12-20T00:19:11;4.60;99.90
46029;DHT22;31763;48.180;7.904;2023-12-20T00:21:38;4.70;99.90
46029;DHT22;31763;48.180;7.904;2023-12-20T00:24:05;4.60;99.90
46029;DHT22;31763;48.180;7.904;2023-12-20T00:26:32;4.60;99.90
46029;DHT22;31763;48.180;7.904;2023-12-20T00:28:59;4.50;99.90
46029;DHT22;31763;48.180;7.904;2023-12-20T00:31:25;4.50;99.90
46029;DHT22;31763;48.180;7.904;2023-12-20T00:33:52;4.50;99.90
46029;DHT22;31763;48.180;7.904;2023-12-20T00:36:19;4.40;99.90
46029;DHT22;31763;48.180;7.904;2023-12-20T00:38:46;4.40;99.90
46029;DHT22;31763;48.180;7.904;2023-12-20T00:41:13;4.30;99.90
46029;DHT22;31763;48.180;7.904;2023-12-20T00:43:40;4.30;99.90
46029;DHT22;31763;48.180;7.904;2023-12-20T00:46:07;4.30;99.90
46029;DHT22;31763;48.180;7.904;2023-12-20T00:48:34;4.20;99.90
46029;DHT22;31763;48.180;7.904;2023-12-20T00:51:00;4.20;99.90
46029;DHT22;31763;48.180;7.904;2023-12-20T00:53:27;4.20;99.90
46029;DHT22;31763;48.180;7.904;2023-12-20T00:55:54;4.10;99.90
46029;DHT22;31763;48.180;7.904;2023-12-20T00:58:21;4.10;99.90
46029;DHT22;31763;48.180;7.904;2023-12-20T01:00:48;4.00;99.90
46029;DHT22;31763;48.180;7.904;2023-12-20T01:03:15;4.00;99.90
46029;DHT22;31763;48.180;7.904;2023-12-20T01:05:42;4.00;99.90
46029;DHT22;31763;48.180;7.904;2023-12-20T01:08:09;3.90;99.90
46029;DHT22;31763;48.180;7.904;2023-12-20T01:10:36;3.90;99.90
46029;DHT22;31763;48.180;7.904;2023-12-20T01:13:03;3.90;99.90
46029;DHT22;31763;48.180;7.904;2023-12-20T01:15:30;3.90;99.90
46029;DHT22;31763;48.180;7.904;2023-12-20T01:17:57;3.90;99.90
46029;DHT22;31763;48.180;7.904;2023-12-20T01:20:26;3.90;99.90
46029;DHT22;31763;48.180;7.904;2023-12-20T01:22:53;3.90;99.90
46029;DHT22;31763;48.180;7.904;2023-12-20T01:25:19;3.80;99.90
46029;DHT22;31763;48.180;7.904;2023-12-20T01:27:46;3.80;99.90
46029;DHT22;31763;48.180;7.904;2023-12-20T01:30:15;3.80;99.90
46029;DHT22;31763;48.180;7.904;2023-12-20T01:32:41;3.80;99.90
46029;DHT22;31763;48.180;7.904;2023-12-20T01:35:08;3.80;99.90
46029;DHT22;31763;48.180;7.904;2023-12-20T01:37:35;3.80;99.90
46029;DHT22;31763;48.180;7.904;2023-12-20T01:40:02;3.80;99.90
46029;DHT22;31763;48.180;7.904;2023-12-20T01:42:30;3.80;99.90
46029;DHT22;31763;48.180;7.904;2023-12-20T01:44:57;3.90;99.90
46029;DHT22;31763;48.180;7.904;2023-12-20T01:47:23;3.90;99.90
46029;DHT22;31763;48.180;7.904;2023-12-20T01:49:51;3.80;99.90
46029;DHT22;31763;48.180;7.904;2023-12-20T01:52:19;3.90;99.90
46029;DHT22;31763;48.180;7.904;2023-12-20T01:54:47;3.90;99.90
46029;DHT22;31763;48.180;7.904;2023-12-20T01:57:14;3.90;99.90
46029;DHT22;31763;48.180;7.904;2023-12-20T01:59:42;3.90;99.90
46029;DHT22;31763;48.180;7.904;2023-12-20T02:02:09;3.90;99.90
46029;DHT22;31763;48.180;7.904;2023-12-20T02:04:39;3.90;99.90
46029;DHT22;31763;48.180;7.904;2023-12-20T02:07:07;3.90;99.90
46029;DHT22;31763;48.180;7.904;2023-12-20T02:09:34;3.90;99.90
46029;DHT22;31763;48.180;7.904;2023-12-20T02:12:01;3.90;99.90
46029;DHT22;31763;48.180;7.904;2023-12-20T02:14:28;3.90;99.90
46029;DHT22;31763;48.180;7.904;2023-12-20T02:16:55;3.90;99.90
46029;DHT22;31763;48.180;7.904;2023-12-20T02:19:22;3.90;99.90
46029;DHT22;31763;48.180;7.904;2023-12-20T02:21:49;3.90;99.90
46029;DHT22;31763;48.180;7.904;2023-12-20T02:24:17;3.90;99.90
46029;DHT22;31763;48.180;7.904;2023-12-20T02:26:44;4.00;99.90
46029;DHT22;31763;48.180;7.904;2023-12-20T02:29:13;3.90;99.90
46029;DHT22;31763;48.180;7.904;2023-12-20T02:31:39;3.90;99.90
46029;DHT22;31763;48.180;7.904;2023-12-20T02:34:06;3.90;99.90
46029;DHT22;31763;48.180;7.904;2023-12-20T02:36:33;3.90;99.90
46029;DHT22;31763;48.180;7.904;2023-12-20T02:39:00;3.90;99.90
46029;DHT22;31763;48.180;7.904;2023-12-20T02:41:27;3.90;99.90
46029;DHT22;31763;48.180;7.904;2023-12-20T02:43:54;4.00;99.90
46029;DHT22;31763;48.180;7.904;2023-12-20T02:46:21;3.90;99.90
46029;DHT22;31763;48.180;7.904;2023-12-20T02:48:48;3.90;99.90
46029;DHT22;31763;48.180;7.904;2023-12-20T02:51:14;3.90;99.90
46029;DHT22;31763;48.180;7.904;2023-12-20T02:53:41;3.90;99.90
46029;DHT22;31763;48.180;7.904;2023-12-20T02:56:08;3.90;99.90
46029;DHT22;31763;48.180;7.904;2023-12-20T02:58:35;4.00;99.90
46029;DHT22;31763;48.180;7.904;2023-12-20T03:01:02;3.90;99.90
46029;DHT22;31763;48.180;7.904;2023-12-20T03:03:29;3.90;99.90
46029;DHT22;31763;48.180;7.904;2023-12-20T03:05:56;3.90;99.90
46029;DHT22;31763;48.180;7.904;2023-12-20T03:08:23;3.90;99.90
46029;DHT22;31763;48.180;7.904;2023-12-20T03:10:52;4.00;99.90
46029;DHT22;31763;48.180;7.904;2023-12-20T03:13:20;4.00;99.90
46029;DHT22;31763;48.180;7.904;2023-12-20T03:15:47;4.00;99.90
46029;DHT22;31763;48.180;7.904;2023-12-20T03:18:13;3.90;99.90
46029;DHT22;31763;48.180;7.904;2023-12-20T03:20:40;3.90;99.90
46029;DHT22;31763;48.180;7.904;2023-12-20T03:23:08;3.90;99.90
46029;DHT22;31763;48.180;7.904;2023-12-20T03:25:35;3.90;99.90
46029;DHT22;31763;48.180;7.904;2023-12-20T03:28:02;4.00;99.90
46029;DHT22;31763;48.180;7.904;2023-12-20T03:30:29;3.90;99.90
46029;DHT22;31763;48.180;7.904;2023-12-20T03:32:56;4.00;99.90
46029;DHT22;31763;48.180;7.904;2023-12-20T03:35:23;3.90;99.90
46029;DHT22;31763;48.180;7.904;2023-12-20T03:37:50;4.00;99.90
46029;DHT22;31763;48.180;7.904;2023-12-20T03:40:16;4.00;99.90
46029;DHT22;31763;48.180;7.904;2023-12-20T03:42:43;4.00;99.90
46029;DHT22;31763;48.180;7.904;2023-12-20T03:45:10;4.00;99.90
46029;DHT22;31763;48.180;7.904;2023-12-20T03:47:37;4.00;99.90
46029;DHT22;31763;48.180;7.904;2023-12-20T03:50:04;4.00;99.90
46029;DHT22;31763;48.180;7.904;2023-12-20T03:52:32;4.10;99.90
46029;DHT22;31763;48.180;7.904;2023-12-20T03:54:59;4.00;99.90
46029;DHT22;31763;48.180;7.904;2023-12-20T03:57:26;4.00;99.90
46029;DHT22;31763;48.180;7.904;2023-12-20T03:59:52;4.10;99.90
46029;DHT22;31763;48.180;7.904;2023-12-20T04:02:19;4.00;99.90
46029;DHT22;31763;48.180;7.904;2023-12-20T04:04:46;4.00;99.90
46029;DHT22;31763;48.180;7.904;2023-12-20T04:07:13;4.00;99.90
46029;DHT22;31763;48.180;7.904;2023-12-20T04:09:41;4.00;99.90
46029;DHT22;31763;48.180;7.904;2023-12-20T04:12:08;4.00;99.90
46029;DHT22;31763;48.180;7.904;2023-12-20T04:14:35;4.10;99.90
46029;DHT22;31763;48.180;7.904;2023-12-20T04:17:02;4.10;99.90
46029;DHT22;31763;48.180;7.904;2023-12-20T04:19:29;4.10;99.90
46029;DHT22;31763;48.180;7.904;2023-12-20T04:21:56;4.00;99.90
46029;DHT22;31763;48.180;7.904;2023-12-20T04:24:23;4.00;99.90
46029;DHT22;31763;48.180;7.904;2023-12-20T04:26:50;4.00;99.90
46029;DHT22;31763;48.180;7.904;2023-12-20T04:29:17;4.00;99.90
46029;DHT22;31763;48.180;7.904;2023-12-20T04:31:43;4.00;99.90
46029;DHT22;31763;48.180;7.904;2023-12-20T04:34:10;4.00;99.90
46029;DHT22;31763;48.180;7.904;2023-12-20T04:36:37;3.90;99.90
46029;DHT22;31763;48.180;7.904;2023-12-20T04:39:04;4.10;99.90
46029;DHT22;31763;48.180;7.904;2023-12-20T04:41:31;4.10;99.90
46029;DHT22;31763;48.180;7.904;2023-12-20T04:43:58;4.10;99.90
46029;DHT22;31763;48.180;7.904;2023-12-20T04:46:25;4.10;99.90
46029;DHT22;31763;48.180;7.904;2023-12-20T04:48:52;4.00;99.90
46029;DHT22;31763;48.180;7.904;2023-12-20T04:51:19;4.00;99.90
46029;DHT22;31763;48.180;7.904;2023-12-20T04:53:46;4.00;99.90
46029;DHT22;31763;48.180;7.904;2023-12-20T04:56:13;4.00;99.90
46029;DHT22;31763;48.180;7.904;2023-12-20T04:58:40;4.00;99.90
46029;DHT22;31763;48.180;7.904;2023-12-20T05:01:08;4.00;99.90
46029;DHT22;31763;48.180;7.904;2023-12-20T05:03:35;4.00;99.90
46029;DHT22;31763;48.180;7.904;2023-12-20T05:06:02;4.00;99.90
46029;DHT22;31763;48.180;7.904;2023-12-20T05:08:30;4.00;99.90
46029;DHT22;31763;48.180;7.904;2023-12-20T05:10:57;4.00;99.90
46029;DHT22;31763;48.180;7.904;2023-12-20T05:13:24;4.00;99.90
46029;DHT22;31763;48.180;7.904;2023-12-20T05:16:04;4.00;99.90
46029;DHT22;31763;48.180;7.904;2023-12-20T05:18:31;4.00;99.90
46029;DHT22;31763;48.180;7.904;2023-12-20T05:20:58;4.00;99.90
46029;DHT22;31763;48.180;7.904;2023-12-20T05:23:25;4.00;99.90
46029;DHT22;31763;48.180;7.904;2023-12-20T05:25:52;4.00;99.90
46029;DHT22;31763;48.180;7.904;2023-12-20T05:28:19;4.00;99.90
46029;DHT22;31763;48.180;7.904;2023-12-20T05:30:46;4.10;99.90
46029;DHT22;31763;48.180;7.904;2023-12-20T05:33:12;4.00;99.90
46029;DHT22;31763;48.180;7.904;2023-12-20T05:35:39;4.10;99.90
46029;DHT22;31763;48.180;7.904;2023-12-20T05:38:06;4.10;99.90
46029;DHT22;31763;48.180;7.904;2023-12-20T05:40:33;4.10;99.90
46029;DHT22;31763;48.180;7.904;2023-12-20T05:43:00;4.10;99.90
46029;DHT22;31763;48.180;7.904;2023-12-20T05:45:27;4.10;99.90
46029;DHT22;31763;48.180;7.904;2023-12-20T05:47:54;4.10;99.90
46029;DHT22;31763;48.180;7.904;2023-12-20T05:50:21;4.10;99.90
46029;DHT22;31763;48.180;7.904;2023-12-20T05:52:47;4.10;99.90
46029;DHT22;31763;48.180;7.904;2023-12-20T05:55:14;4.10;99.90
46029;DHT22;31763;48.180;7.904;2023-12-20T05:57:41;4.10;99.90
46029;DHT22;31763;48.180;7.904;2023-12-20T06:00:10;4.10;99.90
46029;DHT22;31763;48.180;7.904;2023-12-20T06:02:38;4.10;99.90
46029;DHT22;31763;48.180;7.904;2023-12-20T06:05:05;4.20;99.90
46029;DHT22;31763;48.180;7.904;2023-12-20T06:07:32;4.10;99.90
46029;DHT22;31763;48.180;7.904;2023-12-20T06:09:59;4.20;99.90
46029;DHT22;31763;48.180;7.904;2023-12-20T06:12:26;4.20;99.90
46029;DHT22;31763;48.180;7.904;2023-12-20T06:14:55;4.10;99.90
46029;DHT22;31763;48.180;7.904;2023-12-20T06:17:22;4.10;99.90
46029;DHT22;31763;48.180;7.904;2023-12-20T06:19:49;4.10;99.90
46029;DHT22;31763;48.180;7.904;2023-12-20T06:22:15;4.10;99.90
46029;DHT22;31763;48.180;7.904;2023-12-20T06:24:42;4.20;99.90
46029;DHT22;31763;48.180;7.904;2023-12-20T06:27:09;4.10;99.90
46029;DHT22;31763;48.180;7.904;2023-12-20T06:29:36;4.10;99.90
46029;DHT22;31763;48.180;7.904;2023-12-20T06:32:03;4.10;99.90
46029;DHT22;31763;48.180;7.904;2023-12-20T06:34:30;4.10;99.90
46029;DHT22;31763;48.180;7.904;2023-12-20T06:36:57;4.10;99.90
46029;DHT22;31763;48.180;7.904;2023-12-20T06:39:24;4.10;99.90
46029;DHT22;31763;48.180;7.904;2023-12-20T06:41:51;4.10;99.90
46029;DHT22;31763;48.180;7.904;2023-12-20T06:44:18;4.10;99.90
46029;DHT22;31763;48.180;7.904;2023-12-20T06:46:45;4.10;99.90
46029;DHT22;31763;48.180;7.904;2023-12-20T06:49:12;4.10;99.90
46029;DHT22;31763;48.180;7.904;2023-12-20T06:51:39;4.10;99.90
46029;DHT22;31763;48.180;7.904;2023-12-20T06:54:06;4.20;99.90
46029;DHT22;31763;48.180;7.904;2023-12-20T06:56:33;4.10;99.90
46029;DHT22;31763;48.180;7.904;2023-12-20T06:59:00;4.20;99.90
46029;DHT22;31763;48.180;7.904;2023-12-20T07:01:27;4.20;99.90
46029;DHT22;31763;48.180;7.904;2023-12-20T07:03:54;4.20;99.90
46029;DHT22;31763;48.180;7.904;2023-12-20T07:06:21;4.20;99.90
46029;DHT22;31763;48.180;7.904;2023-12-20T07:08:50;4.20;99.90
46029;DHT22;31763;48.180;7.904;2023-12-20T07:11:18;4.20;99.90
46029;DHT22;31763;48.180;7.904;2023-12-20T07:13:45;4.20;99.90
46029;DHT22;31763;48.180;7.904;2023-12-20T07:16:12;4.20;99.90
46029;DHT22;31763;48.180;7.904;2023-12-20T07:18:39;4.20;99.90
46029;DHT22;31763;48.180;7.904;2023-12-20T07:21:06;4.20;99.90
46029;DHT22;31763;48.180;7.904;2023-12-20T07:23:34;4.20;99.90
46029;DHT22;31763;48.180;7.904;2023-12-20T07:26:01;4.20;99.90
46029;DHT22;31763;48.180;7.904;2023-12-20T07:28:28;4.20;99.90
46029;DHT22;31763;48.180;7.904;2023-12-20T07:30:55;4.20;99.90
46029;DHT22;31763;48.180;7.904;2023-12-20T07:33:22;4.20;99.90
46029;DHT22;31763;48.180;7.904;2023-12-20T07:35:49;4.20;99.90
46029;DHT22;31763;48.180;7.904;2023-12-20T07:38:18;4.20;99.90
46029;DHT22;31763;48.180;7.904;2023-12-20T07:40:45;4.20;99.90
46029;DHT22;31763;48.180;7.904;2023-12-20T07:43:12;4.20;99.90
46029;DHT22;31763;48.180;7.904;2023-12-20T07:45:40;4.20;99.90
46029;DHT22;31763;48.180;7.904;2023-12-20T07:48:07;4.30;99.90
46029;DHT22;31763;48.180;7.904;2023-12-20T07:50:34;4.20;99.90
46029;DHT22;31763;48.180;7.904;2023-12-20T07:53:02;4.30;99.90
46029;DHT22;31763;48.180;7.904;2023-12-20T07:55:29;4.30;99.90
46029;DHT22;31763;48.180;7.904;2023-12-20T07:57:58;4.30;99.90
46029;DHT22;31763;48.180;7.904;2023-12-20T08:00:26;4.30;99.90
46029;DHT22;31763;48.180;7.904;2023-12-20T08:02:53;4.30;99.90
46029;DHT22;31763;48.180;7.904;2023-12-20T08:05:20;4.20;99.90
46029;DHT22;31763;48.180;7.904;2023-12-20T08:07:47;4.20;99.90
46029;DHT22;31763;48.180;7.904;2023-12-20T08:10:14;4.30;99.90
46029;DHT22;31763;48.180;7.904;2023-12-20T08:12:41;4.30;99.90
46029;DHT22;31763;48.180;7.904;2023-12-20T08:15:09;4.20;99.90
46029;DHT22;31763;48.180;7.904;2023-12-20T08:17:36;4.30;99.90
46029;DHT22;31763;48.180;7.904;2023-12-20T08:20:03;4.40;99.90
46029;DHT22;31763;48.180;7.904;2023-12-20T08:22:31;4.30;99.90
46029;DHT22;31763;48.180;7.904;2023-12-20T08:24:58;4.40;99.90
46029;DHT22;31763;48.180;7.904;2023-12-20T08:27:26;4.40;99.90
46029;DHT22;31763;48.180;7.904;2023-12-20T08:29:53;4.40;99.90
46029;DHT22;31763;48.180;7.904;2023-12-20T08:32:20;4.40;99.90
46029;DHT22;31763;48.180;7.904;2023-12-20T08:34:47;4.40;99.90
46029;DHT22;31763;48.180;7.904;2023-12-20T08:37:13;4.40;99.90
46029;DHT22;31763;48.180;7.904;2023-12-20T08:39:40;4.30;99.90
46029;DHT22;31763;48.180;7.904;2023-12-20T08:42:11;4.40;99.90
46029;DHT22;31763;48.180;7.904;2023-12-20T08:44:38;4.40;99.90
46029;DHT22;31763;48.180;7.904;2023-12-20T08:47:05;4.50;99.90
46029;DHT22;31763;48.180;7.904;2023-12-20T08:49:32;4.50;99.90
46029;DHT22;31763;48.180;7.904;2023-12-20T08:51:59;4.40;99.90
46029;DHT22;31763;48.180;7.904;2023-12-20T08:54:26;4.50;99.90
46029;DHT22;31763;48.180;7.904;2023-12-20T08:56:52;4.50;99.90
46029;DHT22;31763;48.180;7.904;2023-12-20T08:59:19;4.50;99.90
46029;DHT22;31763;48.180;7.904;2023-12-20T09:01:46;4.40;99.90
46029;DHT22;31763;48.180;7.904;2023-12-20T09:04:14;4.40;99.90
46029;DHT22;31763;48.180;7.904;2023-12-20T09:06:41;4.40;99.90
46029;DHT22;31763;48.180;7.904;2023-12-20T09:09:08;4.50;99.90
46029;DHT22;31763;48.180;7.904;2023-12-20T09:11:40;4.50;99.90
46029;DHT22;31763;48.180;7.904;2023-12-20T09:14:07;4.40;99.90
46029;DHT22;31763;48.180;7.904;2023-12-20T09:16:34;4.40;99.90
46029;DHT22;31763;48.180;7.904;2023-12-20T09:19:01;4.30;99.90
46029;DHT22;31763;48.180;7.904;2023-12-20T09:21:29;4.20;99.90
46029;DHT22;31763;48.180;7.904;2023-12-20T09:23:56;4.10;99.90
46029;DHT22;31763;48.180;7.904;2023-12-20T09:26:23;4.00;99.90
46029;DHT22;31763;48.180;7.904;2023-12-20T09:28:50;3.90;99.90
46029;DHT22;31763;48.180;7.904;2023-12-20T09:31:17;4.00;99.90
46029;DHT22;31763;48.180;7.904;2023-12-20T09:33:44;4.00;99.90
46029;DHT22;31763;48.180;7.904;2023-12-20T09:36:11;4.00;99.90
46029;DHT22;31763;48.180;7.904;2023-12-20T09:38:38;4.00;99.90
46029;DHT22;31763;48.180;7.904;2023-12-20T09:41:04;3.90;99.90
46029;DHT22;31763;48.180;7.904;2023-12-20T09:43:35;4.10;99.90
46029;DHT22;31763;48.180;7.904;2023-12-20T09:46:05;4.10;99.90
46029;DHT22;31763;48.180;7.904;2023-12-20T09:48:33;4.20;99.90
46029;DHT22;31763;48.180;7.904;2023-12-20T09:51:00;4.10;99.90
46029;DHT22;31763;48.180;7.904;2023-12-20T09:53:26;4.10;99.90
46029;DHT22;31763;48.180;7.904;2023-12-20T09:55:58;4.10;99.90
46029;DHT22;31763;48.180;7.904;2023-12-20T09:58:27;4.10;99.90
46029;DHT22;31763;48.180;7.904;2023-12-20T10:00:55;4.20;99.90
46029;DHT22;31763;48.180;7.904;2023-12-20T10:03:25;4.30;99.90
46029;DHT22;31763;48.180;7.904;2023-12-20T10:05:55;4.30;99.90
46029;DHT22;31763;48.180;7.904;2023-12-20T10:08:24;4.40;99.90
46029;DHT22;31763;48.180;7.904;2023-12-20T10:10:51;4.40;99.90
46029;DHT22;31763;48.180;7.904;2023-12-20T10:13:18;4.30;99.90
46029;DHT22;31763;48.180;7.904;2023-12-20T10:15:45;4.40;99.90
46029;DHT22;31763;48.180;7.904;2023-12-20T10:18:12;4.40;99.90
46029;DHT22;31763;48.180;7.904;2023-12-20T10:20:40;4.30;99.90
46029;DHT22;31763;48.180;7.904;2023-12-20T10:23:08;4.40;99.90
46029;DHT22;31763;48.180;7.904;2023-12-20T10:25:36;4.40;99.90
46029;DHT22;31763;48.180;7.904;2023-12-20T10:30:38;4.50;99.90
46029;DHT22;31763;48.180;7.904;2023-12-20T10:33:06;4.40;99.90
46029;DHT22;31763;48.180;7.904;2023-12-20T10:35:38;4.40;99.90
46029;DHT22;31763;48.180;7.904;2023-12-20T10:38:11;4.50;99.90
46029;DHT22;31763;48.180;7.904;2023-12-20T10:40:40;4.60;99.90
46029;DHT22;31763;48.180;7.904;2023-12-20T10:43:08;4.50;99.90
46029;DHT22;31763;48.180;7.904;2023-12-20T10:45:36;4.60;99.90
46029;DHT22;31763;48.180;7.904;2023-12-20T10:48:04;4.70;99.90
46029;DHT22;31763;48.180;7.904;2023-12-20T10:50:31;4.90;99.90
46029;DHT22;31763;48.180;7.904;2023-12-20T10:52:59;5.10;99.90
46029;DHT22;31763;48.180;7.904;2023-12-20T10:55:27;5.40;99.90
46029;DHT22;31763;48.180;7.904;2023-12-20T10:58:01;5.50;99.90
46029;DHT22;31763;48.180;7.904;2023-12-20T11:00:31;5.50;99.90
46029;DHT22;31763;48.180;7.904;2023-12-20T11:03:00;5.40;99.90
46029;DHT22;31763;48.180;7.904;2023-12-20T11:08:33;5.20;99.90
46029;DHT22;31763;48.180;7.904;2023-12-20T11:11:15;5.10;99.90
46029;DHT22;31763;48.180;7.904;2023-12-20T11:13:57;5.30;99.90
46029;DHT22;31763;48.180;7.904;2023-12-20T11:16:26;5.30;99.90
46029;DHT22;31763;48.180;7.904;2023-12-20T11:19:07;5.50;99.90
46029;DHT22;31763;48.180;7.904;2023-12-20T11:21:34;5.50;99.90
46029;DHT22;31763;48.180;7.904;2023-12-20T11:24:02;5.60;99.90
46029;DHT22;31763;48.180;7.904;2023-12-20T11:26:30;5.90;99.90
46029;DHT22;31763;48.180;7.904;2023-12-20T11:29:33;6.00;99.90
46029;DHT22;31763;48.180;7.904;2023-12-20T11:35:01;5.40;99.90
46029;DHT22;31763;48.180;7.904;2023-12-20T11:37:43;5.30;99.90
46029;DHT22;31763;48.180;7.904;2023-12-20T11:40:13;4.90;99.90
46029;DHT22;31763;48.180;7.904;2023-12-20T11:42:46;4.90;99.90
46029;DHT22;31763;48.180;7.904;2023-12-20T11:45:21;4.70;99.90
46029;DHT22;31763;48.180;7.904;2023-12-20T11:47:50;4.60;99.90
46029;DHT22;31763;48.180;7.904;2023-12-20T11:50:18;4.50;99.90
46029;DHT22;31763;48.180;7.904;2023-12-20T11:52:46;4.60;99.90
46029;DHT22;31763;48.180;7.904;2023-12-20T11:55:14;4.60;99.90
46029;DHT22;31763;48.180;7.904;2023-12-20T11:57:42;4.60;99.90
46029;DHT22;31763;48.180;7.904;2023-12-20T12:00:11;4.70;99.90
46029;DHT22;31763;48.180;7.904;2023-12-20T12:02:38;4.70;99.90
46029;DHT22;31763;48.180;7.904;2023-12-20T12:05:05;4.70;99.90
46029;DHT22;31763;48.180;7.904;2023-12-20T12:07:34;4.70;99.90
46029;DHT22;31763;48.180;7.904;2023-12-20T12:10:01;4.70;99.90
46029;DHT22;31763;48.180;7.904;2023-12-20T12:12:30;4.60;99.90
46029;DHT22;31763;48.180;7.904;2023-12-20T12:14:59;4.70;99.90
46029;DHT22;31763;48.180;7.904;2023-12-20T12:17:26;4.60;99.90
46029;DHT22;31763;48.180;7.904;2023-12-20T12:20:05;4.60;99.90
46029;DHT22;31763;48.180;7.904;2023-12-20T12:22:33;4.60;99.90
46029;DHT22;31763;48.180;7.904;2023-12-20T12:25:10;4.60;99.90
46029;DHT22;31763;48.180;7.904;2023-12-20T12:27:41;4.60;99.90
46029;DHT22;31763;48.180;7.904;2023-12-20T12:30:09;4.60;99.90
46029;DHT22;31763;48.180;7.904;2023-12-20T12:32:38;4.60;99.90
46029;DHT22;31763;48.180;7.904;2023-12-20T12:35:05;4.60;99.90
46029;DHT22;31763;48.180;7.904;2023-12-20T12:37:38;4.70;99.90
46029;DHT22;31763;48.180;7.904;2023-12-20T12:40:14;4.60;99.90
46029;DHT22;31763;48.180;7.904;2023-12-20T12:42:43;4.60;99.90
46029;DHT22;31763;48.180;7.904;2023-12-20T12:45:11;4.60;99.90
46029;DHT22;31763;48.180;7.904;2023-12-20T12:47:39;4.50;99.90
46029;DHT22;31763;48.180;7.904;2023-12-20T12:50:07;4.50;99.90
46029;DHT22;31763;48.180;7.904;2023-12-20T12:52:34;4.50;99.90
46029;DHT22;31763;48.180;7.904;2023-12-20T12:55:02;4.60;99.90
46029;DHT22;31763;48.180;7.904;2023-12-20T12:57:31;4.60;99.90
46029;DHT22;31763;48.180;7.904;2023-12-20T12:59:58;4.60;99.90
46029;DHT22;31763;48.180;7.904;2023-12-20T13:02:25;4.60;99.90
46029;DHT22;31763;48.180;7.904;2023-12-20T13:04:52;4.70;99.90
46029;DHT22;31763;48.180;7.904;2023-12-20T13:07:19;4.60;99.90
46029;DHT22;31763;48.180;7.904;2023-12-20T13:09:46;4.70;99.90
46029;DHT22;31763;48.180;7.904;2023-12-20T13:12:13;4.70;99.90
46029;DHT22;31763;48.180;7.904;2023-12-20T13:14:40;4.60;99.90
46029;DHT22;31763;48.180;7.904;2023-12-20T13:17:07;4.70;99.90
46029;DHT22;31763;48.180;7.904;2023-12-20T13:19:34;4.70;99.90
46029;DHT22;31763;48.180;7.904;2023-12-20T13:22:01;4.70;99.90
46029;DHT22;31763;48.180;7.904;2023-12-20T13:24:28;4.70;99.90
46029;DHT22;31763;48.180;7.904;2023-12-20T13:26:55;4.70;99.90
46029;DHT22;31763;48.180;7.904;2023-12-20T13:29:24;4.50;99.90
46029;DHT22;31763;48.180;7.904;2023-12-20T13:31:53;4.60;99.90
46029;DHT22;31763;48.180;7.904;2023-12-20T13:34:20;4.50;99.90
46029;DHT22;31763;48.180;7.904;2023-12-20T13:36:48;4.60;99.90
46029;DHT22;31763;48.180;7.904;2023-12-20T13:39:17;4.70;99.90
46029;DHT22;31763;48.180;7.904;2023-12-20T13:41:44;4.70;99.90
46029;DHT22;31763;48.180;7.904;2023-12-20T13:44:11;4.70;99.90
46029;DHT22;31763;48.180;7.904;2023-12-20T13:46:41;4.60;99.90
46029;DHT22;31763;48.180;7.904;2023-12-20T13:49:08;4.60;99.90
46029;DHT22;31763;48.180;7.904;2023-12-20T13:51:35;4.60;99.90
46029;DHT22;31763;48.180;7.904;2023-12-20T13:54:02;4.60;99.90
46029;DHT22;31763;48.180;7.904;2023-12-20T13:56:29;4.60;99.90
46029;DHT22;31763;48.180;7.904;2023-12-20T13:58:56;4.60;99.90
46029;DHT22;31763;48.180;7.904;2023-12-20T14:01:23;4.60;99.90
46029;DHT22;31763;48.180;7.904;2023-12-20T14:03:50;4.70;99.90
46029;DHT22;31763;48.180;7.904;2023-12-20T14:06:17;4.60;99.90
46029;DHT22;31763;48.180;7.904;2023-12-20T14:08:44;4.60;99.90
46029;DHT22;31763;48.180;7.904;2023-12-20T14:11:11;4.60;99.90
46029;DHT22;31763;48.180;7.904;2023-12-20T14:13:39;4.60;99.90
46029;DHT22;31763;48.180;7.904;2023-12-20T14:16:06;4.60;99.90
46029;DHT22;31763;48.180;7.904;2023-12-20T14:18:33;4.60;99.90
46029;DHT22;31763;48.180;7.904;2023-12-20T14:20:59;4.60;99.90
46029;DHT22;31763;48.180;7.904;2023-12-20T14:23:26;4.70;99.90
46029;DHT22;31763;48.180;7.904;2023-12-20T14:25:53;4.70;99.90
46029;DHT22;31763;48.180;7.904;2023-12-20T14:28:22;4.70;99.90
46029;DHT22;31763;48.180;7.904;2023-12-20T14:30:49;4.70;99.90
46029;DHT22;31763;48.180;7.904;2023-12-20T14:33:17;4.60;99.90
46029;DHT22;31763;48.180;7.904;2023-12-20T14:35:46;4.60;99.90
46029;DHT22;31763;48.180;7.904;2023-12-20T14:38:12;4.60;99.90
46029;DHT22;31763;48.180;7.904;2023-12-20T14:40:41;4.70;99.90
46029;DHT22;31763;48.180;7.904;2023-12-20T14:43:08;4.70;99.90
46029;DHT22;31763;48.180;7.904;2023-12-20T14:45:35;4.60;99.90
46029;DHT22;31763;48.180;7.904;2023-12-20T14:48:02;4.70;99.90
46029;DHT22;31763;48.180;7.904;2023-12-20T14:50:30;4.70;99.90
46029;DHT22;31763;48.180;7.904;2023-12-20T14:52:56;4.70;99.90
46029;DHT22;31763;48.180;7.904;2023-12-20T14:55:23;4.70;99.90
46029;DHT22;31763;48.180;7.904;2023-12-20T14:57:53;5.00;99.90
46029;DHT22;31763;48.180;7.904;2023-12-20T15:00:20;4.80;99.90
46029;DHT22;31763;48.180;7.904;2023-12-20T15:02:47;4.70;99.90
46029;DHT22;31763;48.180;7.904;2023-12-20T15:05:14;4.80;99.90
46029;DHT22;31763;48.180;7.904;2023-12-20T15:07:42;4.80;99.90
46029;DHT22;31763;48.180;7.904;2023-12-20T15:10:09;4.80;99.90
46029;DHT22;31763;48.180;7.904;2023-12-20T15:12:36;4.80;99.90
46029;DHT22;31763;48.180;7.904;2023-12-20T15:15:03;4.80;99.90
46029;DHT22;31763;48.180;7.904;2023-12-20T15:17:31;4.70;99.90
46029;DHT22;31763;48.180;7.904;2023-12-20T15:19:58;4.50;99.90
46029;DHT22;31763;48.180;7.904;2023-12-20T15:22:25;4.60;99.90
46029;DHT22;31763;48.180;7.904;2023-12-20T15:24:53;4.50;99.90
46029;DHT22;31763;48.180;7.904;2023-12-20T15:27:21;4.50;99.90
46029;DHT22;31763;48.180;7.904;2023-12-20T15:29:51;4.50;99.90
46029;DHT22;31763;48.180;7.904;2023-12-20T15:32:18;4.40;99.90
46029;DHT22;31763;48.180;7.904;2023-12-20T15:34:47;4.40;99.90
46029;DHT22;31763;48.180;7.904;2023-12-20T15:37:14;4.40;99.90
46029;DHT22;31763;48.180;7.904;2023-12-20T15:39:41;4.40;99.90
46029;DHT22;31763;48.180;7.904;2023-12-20T15:42:09;4.40;99.90
46029;DHT22;31763;48.180;7.904;2023-12-20T15:44:36;4.40;99.90
46029;DHT22;31763;48.180;7.904;2023-12-20T15:47:03;4.40;99.90
46029;DHT22;31763;48.180;7.904;2023-12-20T15:49:30;4.40;99.90
46029;DHT22;31763;48.180;7.904;2023-12-20T15:51:57;4.30;99.90
46029;DHT22;31763;48.180;7.904;2023-12-20T15:54:24;4.30;99.90
46029;DHT22;31763;48.180;7.904;2023-12-20T15:56:51;4.20;99.90